Aeroporto :
LOGIN :

Iscrizione | Disclaimer

   EN    FR    IT 

 










Sommario :    VFR   VFR Marginale   IFR   IFR Intensivo   IFR Molto Intensivo
Visibilità : 
Base nubi : 
>= 8 km
>= 3000ft
5 / 8 km
1000 / 3000 ft
1500m / 5 km
500 / 1000 ft
800 / 1500m
200 / 500 ft
< 800m
< 200 ft
Simboli :   Temporali  Nebbia  Neve Forte  Precipitazioni Forti  Vento > 20 kt
SIGMETs :   Varie  Temporali  Ghiacco  Turbolenza  Onda orograficha  Ceneri Vulcaniche







- Altitudine del aeroporto : 171 ft
- Codice IATA : EGC
- Carte del aeroporto


LFBE - Bergerac

ULTIMO METAR :
  • 170700Z AUTO VRB02KT 9999 SCT030 SCT042 18/17 Q1021 NOSIG

METARs OBSOLETI :
  • 170630Z AUTO 00000KT 9999 FEW019 SCT031 OVC040 18/17 Q1021 NOSIG
  • 170600Z AUTO VRB02KT 9999 BKN024 BKN031 17/16 Q1021 NOSIG
  • 170530Z AUTO VRB03KT 7000 SCT031 BKN046 15/15 Q1020 NOSIG
  • 170500Z AUTO 11001KT 4300 1100 R27/P2500 BR FEW019 15/15 Q1020 TEMPO BKN012 BECMG 9999 NSW
  • 170430Z AUTO VRB02KT 6000 FEW020 SCT032 15/14 Q1020 TEMPO 4000 BR BKN012

TAF TAF LFBE
Valido dal 17 a 06 ore il 18 a 06 ore UTC


170500Z 1706/1806 VRB03KT 9999 SCT015
BECMG 1706/1708 BKN020
BECMG 1710/1712 BKN030
BECMG 1712/1715 FEW045
BECMG 1718/1721 CAVOK
Nessun NOTAM noto per questo aeroporto.



MetMap, La meteo Aeronautica in un colpo d'occhio ! - Copyright ORBIFLY Dicembre 2007 - Disclaimer

ORBIFLY MET'MAP TEAM :

Programmazione e sviluppo : Alexandra Zaïnal
Concezione e sviluppo : Baudouin d'Aumeries
Co-Programmazione e sviluppo : Marc-Olivier Méhu
Supporto tecnico e logistico : Manuel Goepfert
Aiuto per la traduzione : Arnaldo La Scala

Contatto : metmap@orbifly.com




FONTI E CREDITI :

   NOAA